createdAt,value
2023-03-31T00:00:13.051Z,99260.59
2023-03-31T00:02:43.312Z,99252.97
2023-03-31T00:05:18.291Z,99234.09
2023-03-31T00:07:48.809Z,99217.06
2023-03-31T00:10:19.540Z,99209.34
2023-03-31T00:12:49.223Z,99208.50
2023-03-31T00:15:18.727Z,99194.88
2023-03-31T00:17:48.309Z,99186.28
2023-03-31T00:20:20.765Z,99166.59
2023-03-31T00:22:50.543Z,99165.75
2023-03-31T00:25:20.224Z,99141.75
2023-03-31T00:27:50.539Z,99137.44
2023-03-31T00:30:20.729Z,99134.81
2023-03-31T00:32:50.279Z,99130.53
2023-03-31T00:35:22.569Z,99121.13
2023-03-31T00:37:53.975Z,99135.63
2023-03-31T00:40:23.523Z,99115.84
2023-03-31T00:42:54.176Z,99124.47
2023-03-31T00:45:32.132Z,99116.81
2023-03-31T00:48:10.453Z,99116.72
2023-03-31T00:50:46.234Z,99111.59
2023-03-31T00:53:18.757Z,99111.59
2023-03-31T00:55:49.797Z,99109.03
2023-03-31T00:58:20.331Z,99108.13
2023-03-31T01:00:53.090Z,99114.94
2023-03-31T01:03:23.809Z,99109.84
2023-03-31T01:05:59.105Z,99114.94
2023-03-31T01:08:30.729Z,99107.19
2023-03-31T01:11:03.986Z,99101.25
2023-03-31T01:13:34.465Z,99095.19
2023-03-31T01:16:04.592Z,99099.50
2023-03-31T01:18:35.273Z,99097.75
2023-03-31T01:21:30.825Z,99097.75
2023-03-31T01:24:25.398Z,99085.69
2023-03-31T01:27:07.012Z,99088.25
2023-03-31T01:29:58.201Z,99083.13
2023-03-31T01:32:58.590Z,99087.41
2023-03-31T01:35:50.686Z,99079.75
2023-03-31T01:38:52.055Z,99076.25
2023-03-31T01:41:35.871Z,99077.97
2023-03-31T01:44:10.724Z,99065.94
2023-03-31T01:46:43.989Z,99058.22
2023-03-31T01:49:18.294Z,99056.59
2023-03-31T01:51:53.872Z,99060.00
2023-03-31T01:54:27.670Z,99061.72
2023-03-31T01:57:01.987Z,99058.28
2023-03-31T01:59:34.355Z,99061.78
2023-03-31T02:02:06.651Z,99053.22
2023-03-31T02:04:40.235Z,99054.06
2023-03-31T02:07:13.486Z,99049.78
2023-03-31T02:09:46.250Z,99044.63
2023-03-31T02:12:19.340Z,99049.78
2023-03-31T02:14:51.756Z,99038.66
2023-03-31T02:17:30.377Z,99039.50
2023-03-31T02:20:02.496Z,99040.44
2023-03-31T02:22:34.844Z,99041.31
2023-03-31T02:25:05.092Z,99037.97
2023-03-31T02:27:38.646Z,99026.84
2023-03-31T02:30:09.770Z,99031.09
2023-03-31T02:32:41.177Z,99032.91
2023-03-31T02:35:13.280Z,99030.25
2023-03-31T02:37:43.946Z,99029.34
2023-03-31T02:40:15.975Z,99026.75
2023-03-31T02:42:48.050Z,99024.06
2023-03-31T02:45:43.113Z,99019.03
2023-03-31T02:48:15.025Z,99018.03
2023-03-31T02:51:11.227Z,99014.56
2023-03-31T02:53:50.686Z,99004.22
2023-03-31T02:56:34.610Z,99001.66
2023-03-31T02:59:16.747Z,99009.34
2023-03-31T03:02:02.045Z,99000.81
2023-03-31T03:04:42.069Z,98999.91
2023-03-31T03:07:15.560Z,98995.63
2023-03-31T03:09:49.613Z,98993.84
2023-03-31T03:12:22.442Z,98999.81
2023-03-31T03:14:58.393Z,98998.88
2023-03-31T03:17:29.774Z,99002.41
2023-03-31T03:20:00.807Z,98998.09
2023-03-31T03:22:30.509Z,98997.41
2023-03-31T03:25:00.033Z,98992.16
2023-03-31T03:27:30.256Z,98993.75
2023-03-31T03:30:02.821Z,98982.63
2023-03-31T03:32:33.844Z,98988.66
2023-03-31T03:35:03.528Z,98985.16
2023-03-31T03:37:33.575Z,98982.53
2023-03-31T03:40:06.126Z,98977.53
2023-03-31T03:42:35.837Z,98980.06
2023-03-31T03:45:08.984Z,98975.72
2023-03-31T03:47:38.998Z,98974.84
2023-03-31T03:50:10.039Z,98975.59
2023-03-31T03:52:39.803Z,98983.28
2023-03-31T03:55:09.952Z,98979.88
2023-03-31T03:57:39.512Z,98979.81
2023-03-31T04:00:13.734Z,98978.97
2023-03-31T04:02:43.410Z,98973.78
2023-03-31T04:05:13.042Z,98975.59
2023-03-31T04:07:42.619Z,98972.25
2023-03-31T04:10:12.765Z,98980.88
2023-03-31T04:12:42.333Z,98973.94
2023-03-31T04:15:14.694Z,98957.66
2023-03-31T04:17:51.200Z,98963.66
2023-03-31T04:20:20.986Z,98967.97
2023-03-31T04:22:50.856Z,98955.13
2023-03-31T04:25:22.789Z,98961.94
2023-03-31T04:27:54.963Z,98954.31
2023-03-31T04:30:31.164Z,98946.69
2023-03-31T04:33:02.874Z,98942.38
2023-03-31T04:35:49.608Z,98935.47
2023-03-31T04:38:21.250Z,98936.53
2023-03-31T04:40:51.861Z,98934.72
2023-03-31T04:43:22.416Z,98931.31
2023-03-31T04:45:54.631Z,98928.63
2023-03-31T04:48:24.270Z,98922.63
2023-03-31T04:50:53.818Z,98922.63
2023-03-31T04:53:23.348Z,98914.16
2023-03-31T04:55:52.959Z,98913.22
2023-03-31T04:58:22.971Z,98914.22
2023-03-31T05:00:55.376Z,98908.97
2023-03-31T05:03:25.271Z,98905.75
2023-03-31T05:05:55.168Z,98899.75
2023-03-31T05:08:24.724Z,98897.06
2023-03-31T05:10:54.202Z,98889.41
2023-03-31T05:13:23.710Z,98884.31
2023-03-31T05:15:55.865Z,98884.31
2023-03-31T05:18:25.475Z,98877.50
2023-03-31T05:20:54.958Z,98869.75
2023-03-31T05:23:24.469Z,98879.22
2023-03-31T05:25:53.986Z,98877.56
2023-03-31T05:28:23.660Z,98872.31
2023-03-31T05:30:55.888Z,98865.53
2023-03-31T05:33:25.398Z,98868.22
2023-03-31T05:35:55.219Z,98863.00
2023-03-31T05:38:24.883Z,98859.59
2023-03-31T05:40:54.382Z,98854.31
2023-03-31T05:43:23.870Z,98852.69
2023-03-31T05:45:55.970Z,98851.09
2023-03-31T05:48:25.509Z,98849.44
2023-03-31T05:50:55.000Z,98851.13
2023-03-31T05:53:24.846Z,98852.81
2023-03-31T05:55:59.707Z,98852.75
2023-03-31T05:58:29.810Z,98850.13
2023-03-31T06:01:11.718Z,98846.69
2023-03-31T06:03:44.017Z,98846.75
2023-03-31T06:06:15.027Z,98842.41
2023-03-31T06:08:45.762Z,98845.94
2023-03-31T06:11:17.154Z,98833.94
2023-03-31T06:13:46.659Z,98836.59
2023-03-31T06:16:20.169Z,98842.53
2023-03-31T06:18:51.526Z,98841.91
2023-03-31T06:21:21.858Z,98847.84
2023-03-31T06:23:55.217Z,98843.50
2023-03-31T06:26:25.175Z,98847.00
2023-03-31T06:28:54.857Z,98847.88
2023-03-31T06:31:28.068Z,98857.41
2023-03-31T06:33:57.843Z,98859.00
2023-03-31T06:36:27.389Z,98863.41
2023-03-31T06:38:57.172Z,98870.16
2023-03-31T06:41:26.795Z,98876.22
2023-03-31T06:43:56.280Z,98885.66
2023-03-31T06:46:28.703Z,98904.47
2023-03-31T06:48:58.293Z,98923.72
2023-03-31T06:51:28.361Z,98933.72
2023-03-31T06:53:59.253Z,98949.22
2023-03-31T06:56:28.994Z,98984.53
2023-03-31T06:58:58.566Z,99002.66
2023-03-31T07:01:31.711Z,99017.19
2023-03-31T07:04:01.272Z,99041.13
2023-03-31T07:06:31.329Z,99069.41
2023-03-31T07:09:00.837Z,99113.28
2023-03-31T07:11:30.441Z,99160.38
2023-03-31T07:13:59.956Z,99227.22
2023-03-31T07:16:32.089Z,99283.25
2023-03-31T07:19:03.745Z,99316.63
2023-03-31T07:21:33.245Z,99341.69
2023-03-31T07:24:03.292Z,99346.72
2023-03-31T07:26:32.863Z,99355.28
2023-03-31T07:29:02.478Z,99360.41
2023-03-31T07:31:37.141Z,99371.88
2023-03-31T07:34:07.379Z,99379.59
2023-03-31T07:36:36.937Z,99386.31
2023-03-31T07:39:07.626Z,99398.50
2023-03-31T07:41:37.866Z,99399.31
2023-03-31T07:44:07.461Z,99408.78
2023-03-31T07:46:39.766Z,99410.56
2023-03-31T07:49:10.547Z,99410.66
2023-03-31T07:51:40.071Z,99409.63
2023-03-31T07:54:09.770Z,99404.72
2023-03-31T07:56:39.313Z,99418.34
2023-03-31T07:59:08.967Z,99406.38
2023-03-31T08:01:41.233Z,99412.44
2023-03-31T08:04:12.698Z,99409.31
2023-03-31T08:06:42.215Z,99411.84
2023-03-31T08:09:12.495Z,99413.44
2023-03-31T08:11:42.001Z,99405.69
2023-03-31T08:14:11.496Z,99409.09
2023-03-31T08:16:43.638Z,99399.66
2023-03-31T08:19:13.354Z,99397.00
2023-03-31T08:21:42.833Z,99396.34
2023-03-31T08:24:12.332Z,99394.44
2023-03-31T08:26:41.838Z,99387.31
2023-03-31T08:29:11.334Z,99390.72
2023-03-31T08:31:43.763Z,99387.31
2023-03-31T08:34:14.640Z,99381.25
2023-03-31T08:36:44.143Z,99376.06
2023-03-31T08:39:13.777Z,99374.06
2023-03-31T08:41:53.541Z,99371.47
2023-03-31T08:44:27.194Z,99352.53
2023-03-31T08:47:00.952Z,99347.41
2023-03-31T08:49:32.130Z,99319.03
2023-03-31T08:52:03.884Z,99319.88
2023-03-31T08:54:36.234Z,99296.97
2023-03-31T08:57:10.226Z,99285.31
2023-03-31T08:59:41.220Z,99270.84
2023-03-31T09:02:21.238Z,99253.53
2023-03-31T09:05:11.537Z,99234.69
2023-03-31T09:07:49.298Z,99235.72
2023-03-31T09:10:31.434Z,99223.88
2023-03-31T09:13:05.452Z,99215.63
2023-03-31T09:15:39.076Z,99197.34
2023-03-31T09:18:18.316Z,99194.47
2023-03-31T09:20:51.502Z,99181.53
2023-03-31T09:23:27.524Z,99176.53
2023-03-31T09:25:58.030Z,99178.47
2023-03-31T09:28:32.819Z,99163.63
2023-03-31T09:31:03.306Z,99181.38
2023-03-31T09:33:35.732Z,99177.41
2023-03-31T09:36:06.304Z,99170.38
2023-03-31T09:38:36.140Z,99166.50
2023-03-31T09:41:06.464Z,99159.03
2023-03-31T09:43:38.680Z,99156.13
2023-03-31T09:46:21.884Z,99144.69
2023-03-31T09:48:58.527Z,99151.81
2023-03-31T09:51:30.961Z,99149.78
2023-03-31T09:54:05.843Z,99142.09
2023-03-31T09:56:38.769Z,99144.50
2023-03-31T09:59:08.289Z,99142.91
2023-03-31T10:01:38.787Z,99127.47
2023-03-31T10:04:13.301Z,99130.13
2023-03-31T10:06:46.279Z,99137.06
2023-03-31T10:09:17.038Z,99127.59
2023-03-31T10:12:00.880Z,99133.13
2023-03-31T10:14:37.478Z,99140.31
2023-03-31T10:17:09.221Z,99139.47
2023-03-31T10:19:41.567Z,99142.09
2023-03-31T10:22:18.880Z,99134.56
2023-03-31T10:24:50.077Z,99141.53
2023-03-31T10:27:24.764Z,99152.91
2023-03-31T10:29:55.663Z,99138.41
2023-03-31T10:32:29.216Z,99151.66
2023-03-31T10:35:06.559Z,99147.44
2023-03-31T10:37:38.494Z,99144.88
2023-03-31T10:40:16.927Z,99147.88
2023-03-31T10:42:49.190Z,99156.00
2023-03-31T10:45:37.270Z,99162.13
2023-03-31T10:48:09.114Z,99164.91
2023-03-31T10:50:42.516Z,99147.91
2023-03-31T10:53:15.746Z,99139.97
2023-03-31T10:55:52.733Z,99127.75
2023-03-31T10:58:29.813Z,99132.09
2023-03-31T11:01:07.460Z,99141.72
2023-03-31T11:04:04.105Z,99142.56
2023-03-31T11:06:46.738Z,99142.75
2023-03-31T11:09:30.211Z,99142.84
2023-03-31T11:12:06.540Z,99147.59
2023-03-31T11:14:45.092Z,99144.84
2023-03-31T11:17:22.622Z,99142.19
2023-03-31T11:19:58.541Z,99142.88
2023-03-31T11:22:34.771Z,99142.97
2023-03-31T11:25:12.535Z,99165.41
2023-03-31T11:27:55.142Z,99161.66
2023-03-31T11:30:27.753Z,99168.41
2023-03-31T11:33:07.738Z,99174.97
2023-03-31T11:36:04.515Z,99173.94
2023-03-31T11:38:45.424Z,99184.81
2023-03-31T11:41:17.162Z,99177.19
2023-03-31T11:43:48.678Z,99178.59
2023-03-31T11:46:21.672Z,99159.88
2023-03-31T11:48:57.528Z,99148.47
2023-03-31T11:51:30.148Z,99139.19
2023-03-31T11:54:03.026Z,99144.25
2023-03-31T11:56:37.917Z,99145.81
2023-03-31T11:59:09.767Z,99153.84
2023-03-31T12:01:45.542Z,99157.50
2023-03-31T12:04:27.080Z,99163.81
2023-03-31T12:07:00.694Z,99169.53
2023-03-31T12:09:38.368Z,99177.50
2023-03-31T12:12:10.278Z,99176.22
2023-03-31T12:14:43.386Z,99179.09
2023-03-31T12:17:17.144Z,99177.22
2023-03-31T12:19:50.450Z,99171.63
2023-03-31T12:22:22.795Z,99154.28
2023-03-31T12:24:55.477Z,99151.44
2023-03-31T12:27:28.439Z,99139.75
2023-03-31T12:30:01.317Z,99125.34
2023-03-31T12:32:34.225Z,99117.78
2023-03-31T12:35:06.615Z,99098.25
2023-03-31T12:37:56.713Z,99082.81
2023-03-31T12:40:39.749Z,99064.84
2023-03-31T12:43:27.439Z,99047.09
2023-03-31T12:46:03.420Z,99037.78
2023-03-31T12:48:42.494Z,99029.03
2023-03-31T12:51:21.826Z,99015.31
2023-03-31T12:54:03.129Z,99016.72
2023-03-31T12:57:05.777Z,99009.88
2023-03-31T12:59:37.382Z,99007.34
2023-03-31T13:02:26.529Z,98995.44
2023-03-31T13:04:56.233Z,98985.97
2023-03-31T13:07:40.620Z,98974.19
2023-03-31T13:10:29.208Z,98966.41
2023-03-31T13:13:07.660Z,98959.72
2023-03-31T13:15:37.173Z,98954.59
2023-03-31T13:18:08.452Z,98946.91
2023-03-31T13:20:39.615Z,98944.50
2023-03-31T13:23:19.899Z,98940.34
2023-03-31T13:25:54.056Z,98929.91
2023-03-31T13:28:44.939Z,98932.63
2023-03-31T13:31:16.326Z,98932.56
2023-03-31T13:33:48.118Z,98928.38
2023-03-31T13:36:28.861Z,98937.81
2023-03-31T13:39:09.904Z,98933.50
2023-03-31T13:41:51.365Z,98949.97
2023-03-31T13:44:38.293Z,98958.84
2023-03-31T13:47:26.815Z,98965.63
2023-03-31T13:49:59.698Z,98970.94
2023-03-31T13:52:41.196Z,98961.31
2023-03-31T13:55:40.609Z,98960.09
2023-03-31T13:58:33.380Z,98973.34
2023-03-31T14:01:29.182Z,98976.75
2023-03-31T14:04:07.589Z,98986.53
2023-03-31T14:06:39.489Z,98997.91
2023-03-31T14:09:11.405Z,99014.84
2023-03-31T14:11:41.559Z,99025.16
2023-03-31T14:14:15.693Z,99039.03
2023-03-31T14:16:49.706Z,99043.44
2023-03-31T14:19:41.038Z,99065.06
2023-03-31T14:22:18.137Z,99078.81
2023-03-31T14:24:52.736Z,99087.16
2023-03-31T14:27:32.872Z,99091.44
2023-03-31T14:30:06.835Z,99102.63
2023-03-31T14:32:43.620Z,99096.56
2023-03-31T14:35:26.743Z,99093.75
2023-03-31T14:37:57.070Z,99095.50
2023-03-31T14:40:27.311Z,99091.38
2023-03-31T14:42:56.837Z,99097.66
2023-03-31T14:45:31.585Z,99105.44
2023-03-31T14:48:07.570Z,99112.22
2023-03-31T14:50:39.034Z,99104.56
2023-03-31T14:53:17.175Z,99119.19
2023-03-31T14:55:58.257Z,99125.09
2023-03-31T14:58:31.995Z,99127.81
2023-03-31T15:01:01.847Z,99131.25
2023-03-31T15:03:34.463Z,99136.59
2023-03-31T15:06:05.501Z,99131.47
2023-03-31T15:08:36.929Z,99135.00
2023-03-31T15:11:12.861Z,99129.34
2023-03-31T15:16:33.298Z,99146.16
2023-03-31T15:19:10.753Z,99153.94
2023-03-31T15:21:41.706Z,99154.03
2023-03-31T15:24:14.658Z,99160.81
2023-03-31T15:26:48.846Z,99161.03
2023-03-31T15:29:21.048Z,99160.81
2023-03-31T15:31:51.382Z,99154.81
2023-03-31T15:34:28.780Z,99154.56
2023-03-31T15:36:59.282Z,99165.34
2023-03-31T15:39:30.551Z,99166.88
2023-03-31T15:42:00.553Z,99157.47
2023-03-31T15:44:41.180Z,99156.66
2023-03-31T15:47:16.262Z,99152.25
2023-03-31T15:49:56.625Z,99153.63
2023-03-31T15:52:30.659Z,99143.94
2023-03-31T15:55:00.602Z,99135.34
2023-03-31T15:57:38.073Z,99126.59
2023-03-31T16:00:11.034Z,99112.13
2023-03-31T16:02:47.113Z,99105.94
2023-03-31T16:05:43.629Z,99097.97
2023-03-31T16:08:24.269Z,99096.41
2023-03-31T16:10:59.771Z,99084.47
2023-03-31T16:13:30.619Z,99088.53
2023-03-31T16:16:01.318Z,99087.56
2023-03-31T16:18:33.898Z,99078.81
2023-03-31T16:21:07.059Z,99079.66
2023-03-31T16:23:38.854Z,99072.97
2023-03-31T16:26:09.354Z,99087.53
2023-03-31T16:28:40.640Z,99075.41
2023-03-31T16:31:33.432Z,99072.03
2023-03-31T16:34:03.553Z,99062.59
2023-03-31T16:36:36.051Z,99066.00
2023-03-31T16:39:06.825Z,99062.41
2023-03-31T16:41:37.723Z,99070.16
2023-03-31T16:44:07.230Z,99060.69
2023-03-31T16:46:36.960Z,99062.41
2023-03-31T16:49:06.741Z,99057.44
2023-03-31T16:51:38.872Z,99056.44
2023-03-31T16:54:08.489Z,99055.56
2023-03-31T16:56:40.938Z,99047.84
2023-03-31T16:59:10.725Z,99047.88
2023-03-31T17:01:40.285Z,99046.97
2023-03-31T17:04:09.814Z,99045.06
2023-03-31T17:06:42.581Z,99042.38
2023-03-31T17:09:12.386Z,99034.47
2023-03-31T17:11:41.953Z,99041.19
2023-03-31T17:14:12.102Z,99033.44
2023-03-31T17:16:48.476Z,99026.59
2023-03-31T17:19:18.418Z,99027.53
2023-03-31T17:21:51.612Z,99022.47
2023-03-31T17:24:22.454Z,99025.03
2023-03-31T17:26:52.262Z,99018.22
2023-03-31T17:29:21.771Z,99019.09
2023-03-31T17:31:51.327Z,99017.41
2023-03-31T17:34:21.482Z,99014.03
2023-03-31T17:36:55.639Z,99010.59
2023-03-31T17:39:25.197Z,99015.81
2023-03-31T17:41:54.708Z,99017.53
2023-03-31T17:44:24.512Z,99023.50
2023-03-31T17:46:54.049Z,99023.50
2023-03-31T17:49:23.741Z,99022.69
2023-03-31T17:51:56.069Z,99025.19
2023-03-31T17:54:26.307Z,99026.06
2023-03-31T17:56:56.414Z,99027.81
2023-03-31T17:59:26.616Z,99031.22
2023-03-31T18:01:56.285Z,99032.97
2023-03-31T18:04:26.066Z,99035.47
2023-03-31T18:06:58.253Z,99038.06
2023-03-31T18:09:28.237Z,99044.94
2023-03-31T18:11:58.533Z,99044.06
2023-03-31T18:14:28.729Z,99049.16
2023-03-31T18:16:59.092Z,99047.38
2023-03-31T18:19:28.598Z,99049.06
2023-03-31T18:22:00.805Z,99055.16
2023-03-31T18:24:32.004Z,99055.06
2023-03-31T18:27:01.602Z,99062.69
2023-03-31T18:29:31.297Z,99065.25
2023-03-31T18:32:00.923Z,99067.69
2023-03-31T18:34:30.775Z,99068.66
2023-03-31T18:37:02.952Z,99060.22
2023-03-31T18:39:32.583Z,99061.94
2023-03-31T18:42:03.225Z,99056.03
2023-03-31T18:44:32.828Z,99052.25
2023-03-31T18:47:02.384Z,99059.94
2023-03-31T18:49:31.871Z,99048.25
2023-03-31T18:52:04.512Z,99059.31
2023-03-31T18:54:34.008Z,99054.00
2023-03-31T18:57:03.999Z,99057.50
2023-03-31T18:59:33.468Z,99064.41
2023-03-31T19:02:03.040Z,99060.03
2023-03-31T19:04:32.837Z,99060.09
2023-03-31T19:07:04.938Z,99064.53
2023-03-31T19:12:15.395Z,99062.34
2023-03-31T19:14:45.297Z,99061.47
2023-03-31T19:17:14.753Z,99057.19
2023-03-31T19:19:45.397Z,99059.69
2023-03-31T19:22:17.536Z,99051.91
2023-03-31T19:24:47.825Z,99049.25
2023-03-31T19:27:17.347Z,99047.53
2023-03-31T19:29:46.868Z,99051.84
2023-03-31T19:32:16.599Z,99045.69
2023-03-31T19:34:46.445Z,99042.41
2023-03-31T19:37:19.093Z,99037.34
2023-03-31T19:39:48.701Z,99033.66
2023-03-31T19:42:18.221Z,99032.94
2023-03-31T19:44:47.915Z,99025.25
2023-03-31T19:47:17.378Z,99022.78
2023-03-31T19:49:47.202Z,99016.72
2023-03-31T19:52:19.298Z,99015.72
2023-03-31T19:54:48.888Z,99018.88
2023-03-31T19:57:18.474Z,99017.09
2023-03-31T19:59:48.008Z,99012.81
2023-03-31T20:02:17.863Z,99000.59
2023-03-31T20:04:47.982Z,98997.97
2023-03-31T20:07:20.872Z,98989.44
2023-03-31T20:09:50.423Z,98984.22
2023-03-31T20:12:19.962Z,98980.69
2023-03-31T20:14:49.498Z,98975.34
2023-03-31T20:17:19.571Z,98971.13
2023-03-31T20:19:49.310Z,98964.13
2023-03-31T20:22:21.742Z,98959.03
2023-03-31T20:24:51.227Z,98952.91
2023-03-31T20:27:23.218Z,98940.88
2023-03-31T20:29:52.772Z,98945.81
2023-03-31T20:32:22.383Z,98933.19
2023-03-31T20:34:51.858Z,98927.22
2023-03-31T20:37:23.948Z,98927.13
2023-03-31T20:39:54.175Z,98916.81
2023-03-31T20:42:23.729Z,98920.22
2023-03-31T20:44:53.240Z,98915.03
2023-03-31T20:47:23.083Z,98915.88
2023-03-31T20:49:52.878Z,98914.16
2023-03-31T20:52:24.924Z,98913.28
2023-03-31T20:54:54.399Z,98913.19
2023-03-31T20:57:24.490Z,98914.97
2023-03-31T20:59:54.832Z,98899.59
2023-03-31T21:02:25.718Z,98899.59
2023-03-31T21:04:55.262Z,98902.25
2023-03-31T21:07:27.369Z,98904.75
2023-03-31T21:09:56.865Z,98907.34
2023-03-31T21:12:26.399Z,98907.34
2023-03-31T21:14:56.023Z,98907.28
2023-03-31T21:17:25.553Z,98911.50
2023-03-31T21:19:55.104Z,98903.31
2023-03-31T21:22:27.632Z,98905.97
2023-03-31T21:24:57.146Z,98908.34
2023-03-31T21:27:26.704Z,98915.31
2023-03-31T21:29:56.227Z,98922.19
2023-03-31T21:32:25.947Z,98921.53
2023-03-31T21:34:55.541Z,98920.69
2023-03-31T21:37:27.924Z,98928.50
2023-03-31T21:39:57.464Z,98929.16
2023-03-31T21:42:26.986Z,98934.34
2023-03-31T21:44:59.065Z,98934.34
2023-03-31T21:47:28.746Z,98929.97
2023-03-31T21:49:58.356Z,98935.94
2023-03-31T21:52:30.630Z,98936.84
2023-03-31T21:55:00.166Z,98939.28
2023-03-31T21:57:29.954Z,98942.75
2023-03-31T22:00:01.738Z,98946.16
2023-03-31T22:02:31.283Z,98945.19
2023-03-31T22:05:00.918Z,98939.34
2023-03-31T22:07:33.080Z,98941.97
2023-03-31T22:10:02.600Z,98938.59
2023-03-31T22:12:33.209Z,98952.13
2023-03-31T22:15:02.741Z,98953.75
2023-03-31T22:17:32.314Z,98957.34
2023-03-31T22:20:01.868Z,98956.56
2023-03-31T22:22:34.117Z,98958.81
2023-03-31T22:25:03.655Z,98951.31
2023-03-31T22:27:33.181Z,98949.59
2023-03-31T22:30:02.999Z,98957.09
2023-03-31T22:32:32.561Z,98960.38
2023-03-31T22:35:02.100Z,98956.91
2023-03-31T22:37:34.239Z,98949.25
2023-03-31T22:40:03.770Z,98958.78
2023-03-31T22:42:33.233Z,98955.34
2023-03-31T22:45:02.734Z,98957.03
2023-03-31T22:47:32.390Z,98959.44
2023-03-31T22:50:01.974Z,98960.41
2023-03-31T22:52:34.078Z,98956.09
2023-03-31T22:55:04.149Z,98962.88
2023-03-31T22:57:33.902Z,98956.88
2023-03-31T23:00:04.118Z,98963.03
2023-03-31T23:02:33.655Z,98962.78
2023-03-31T23:05:03.142Z,98967.97
2023-03-31T23:07:35.283Z,98972.03
2023-03-31T23:10:05.097Z,98977.19
2023-03-31T23:12:34.635Z,98972.91
2023-03-31T23:15:04.120Z,98985.88
2023-03-31T23:17:33.987Z,98980.72
2023-03-31T23:20:04.183Z,98985.81
2023-03-31T23:22:36.718Z,98993.53
2023-03-31T23:25:06.698Z,98994.47
2023-03-31T23:27:36.241Z,98990.09
2023-03-31T23:30:06.409Z,98996.91
2023-03-31T23:32:35.888Z,99001.97
2023-03-31T23:35:05.539Z,99001.97
2023-03-31T23:37:37.627Z,99004.75
2023-03-31T23:40:08.465Z,99005.34
2023-03-31T23:42:37.980Z,99003.78
2023-03-31T23:45:08.640Z,99001.22
2023-03-31T23:47:40.912Z,99005.59
2023-03-31T23:50:11.434Z,99008.09
2023-03-31T23:52:43.559Z,99010.56
2023-03-31T23:55:13.290Z,99008.91
2023-03-31T23:57:42.854Z,99009.88
